createdAt,value
2019-01-11T00:00:25.595Z,157.23
2019-01-11T00:02:55.232Z,153.87
2019-01-11T00:05:24.220Z,148.37
2019-01-11T00:07:51.763Z,155.93
2019-01-11T00:10:19.225Z,164.50
2019-01-11T00:12:49.547Z,151.00
2019-01-11T00:15:16.971Z,151.23
2019-01-11T00:17:44.973Z,156.97
2019-01-11T00:20:12.340Z,139.73
2019-01-11T00:22:39.730Z,150.83
2019-01-11T00:25:07.530Z,150.33
2019-01-11T00:27:34.852Z,159.10
2019-01-11T00:30:02.313Z,161.17
2019-01-11T00:32:31.298Z,143.20
2019-01-11T00:34:58.636Z,157.13
2019-01-11T00:37:26.032Z,168.43
2019-01-11T00:39:53.466Z,158.40
2019-01-11T00:42:20.891Z,148.67
2019-01-11T00:44:48.352Z,158.80
2019-01-11T00:47:15.744Z,156.30
2019-01-11T00:49:43.084Z,156.43
2019-01-11T00:52:10.866Z,156.30
2019-01-11T00:54:38.200Z,164.97
2019-01-11T00:57:05.532Z,145.37
2019-01-11T00:59:32.985Z,128.97
2019-01-11T01:02:00.327Z,146.83
2019-01-11T01:04:27.736Z,128.40
2019-01-11T01:06:55.122Z,139.40
2019-01-11T01:09:22.463Z,145.60
2019-01-11T01:11:49.798Z,147.00
2019-01-11T01:14:17.330Z,145.07
2019-01-11T01:16:44.740Z,147.50
2019-01-11T01:19:12.399Z,137.57
2019-01-11T01:21:39.801Z,146.60
2019-01-11T01:24:07.278Z,141.80
2019-01-11T01:26:34.600Z,147.43
2019-01-11T01:29:01.985Z,143.37
2019-01-11T01:31:29.511Z,151.70
2019-01-11T01:33:56.926Z,141.77
2019-01-11T01:36:24.439Z,151.53
2019-01-11T01:38:51.832Z,147.70
2019-01-11T01:41:19.302Z,151.57
2019-01-11T01:43:46.693Z,154.60
2019-01-11T01:46:14.380Z,143.93
2019-01-11T01:48:41.787Z,153.73
2019-01-11T01:51:09.166Z,165.07
2019-01-11T01:53:36.580Z,159.37
2019-01-11T01:56:03.919Z,167.77
2019-01-11T01:58:31.299Z,156.33
2019-01-11T02:00:58.648Z,166.43
2019-01-11T02:03:25.999Z,152.90
2019-01-11T02:05:53.473Z,160.67
2019-01-11T02:08:22.500Z,152.93
2019-01-11T02:10:49.881Z,159.27
2019-01-11T02:13:17.588Z,150.37
2019-01-11T02:15:45.013Z,147.03
2019-01-11T02:18:12.433Z,145.57
2019-01-11T02:20:39.918Z,158.10
2019-01-11T02:23:07.245Z,156.40
2019-01-11T02:25:34.590Z,167.47
2019-01-11T02:28:02.151Z,176.17
2019-01-11T02:30:29.512Z,158.93
2019-01-11T02:32:56.832Z,154.63
2019-01-11T02:35:24.363Z,172.40
2019-01-11T02:37:52.027Z,154.10
2019-01-11T02:40:19.781Z,167.37
2019-01-11T02:42:47.168Z,168.97
2019-01-11T02:45:16.130Z,192.77
2019-01-11T02:47:43.557Z,170.00
2019-01-11T02:50:11.320Z,165.27
2019-01-11T02:52:38.665Z,172.67
2019-01-11T02:55:06.666Z,161.13
2019-01-11T02:57:34.056Z,155.87
2019-01-11T03:00:01.411Z,155.23
2019-01-11T03:02:28.833Z,170.13
2019-01-11T03:04:59.147Z,152.23
2019-01-11T03:07:26.632Z,152.03
2019-01-11T03:09:53.954Z,157.97
2019-01-11T03:12:21.815Z,147.23
2019-01-11T03:14:49.145Z,156.47
2019-01-11T03:17:16.474Z,162.40
2019-01-11T03:19:47.770Z,162.40
2019-01-11T03:22:12.881Z,155.20
2019-01-11T03:24:40.206Z,153.70
2019-01-11T03:27:07.626Z,149.93
2019-01-11T03:29:34.965Z,156.43
2019-01-11T03:32:02.302Z,153.43
2019-01-11T03:34:29.961Z,158.87
2019-01-11T03:36:57.376Z,138.37
2019-01-11T03:39:24.731Z,169.17
2019-01-11T03:41:53.766Z,148.60
2019-01-11T03:44:21.165Z,148.20
2019-01-11T03:46:48.485Z,144.20
2019-01-11T03:49:15.884Z,130.53
2019-01-11T03:51:43.227Z,127.23
2019-01-11T03:54:10.599Z,133.80
2019-01-11T03:56:38.040Z,140.63
2019-01-11T03:59:05.457Z,127.17
2019-01-11T04:01:34.113Z,126.47
2019-01-11T04:04:01.992Z,131.83
2019-01-11T04:06:29.469Z,123.53
2019-01-11T04:08:56.816Z,130.80
2019-01-11T04:11:24.471Z,127.13
2019-01-11T04:13:52.191Z,116.20
2019-01-11T04:16:19.543Z,115.93
2019-01-11T04:18:48.606Z,111.43
2019-01-11T04:21:16.007Z,106.03
2019-01-11T04:23:43.428Z,113.30
2019-01-11T04:26:10.813Z,112.27
2019-01-11T04:28:38.150Z,104.47
2019-01-11T04:31:05.485Z,105.00
2019-01-11T04:33:33.127Z,110.90
2019-01-11T04:36:00.524Z,110.83
2019-01-11T04:38:29.409Z,100.73
2019-01-11T04:40:56.878Z,105.37
2019-01-11T04:43:25.277Z,103.37
2019-01-11T04:45:52.628Z,105.73
2019-01-11T04:48:20.078Z,106.30
2019-01-11T04:50:47.519Z,108.00
2019-01-11T04:53:14.884Z,108.20
2019-01-11T04:55:42.378Z,102.47
2019-01-11T04:58:09.785Z,114.87
2019-01-11T05:00:39.688Z,112.63
2019-01-11T05:03:07.296Z,121.53
2019-01-11T05:05:34.720Z,119.30
2019-01-11T05:08:02.155Z,117.13
2019-01-11T05:10:30.015Z,118.97
2019-01-11T05:12:58.981Z,125.30
2019-01-11T05:15:26.301Z,126.63
2019-01-11T05:17:53.767Z,123.07
2019-01-11T05:20:21.426Z,121.73
2019-01-11T05:22:48.762Z,128.33
2019-01-11T05:25:16.299Z,141.20
2019-01-11T05:27:43.659Z,139.70
2019-01-11T05:30:12.623Z,134.00
2019-01-11T05:32:40.120Z,120.40
2019-01-11T05:35:07.525Z,116.37
2019-01-11T05:37:34.944Z,119.70
2019-01-11T05:40:02.669Z,112.53
2019-01-11T05:42:30.009Z,136.47
2019-01-11T05:44:57.346Z,140.63
2019-01-11T05:47:24.943Z,121.60
2019-01-11T05:49:52.297Z,116.60
2019-01-11T05:52:19.952Z,126.57
2019-01-11T05:54:48.153Z,121.83
2019-01-11T05:57:15.509Z,116.83
2019-01-11T05:59:42.902Z,114.30
2019-01-11T06:02:10.286Z,117.63
2019-01-11T06:04:44.246Z,116.53
2019-01-11T06:07:21.544Z,122.10
2019-01-11T06:09:49.003Z,121.80
2019-01-11T06:12:16.323Z,118.57
2019-01-11T06:14:43.726Z,124.33
2019-01-11T06:17:11.120Z,115.40
2019-01-11T06:19:38.503Z,106.70
2019-01-11T06:22:05.886Z,122.10
2019-01-11T06:24:33.220Z,109.90
2019-01-11T06:27:00.544Z,110.27
2019-01-11T06:29:27.962Z,118.37
2019-01-11T06:31:55.371Z,115.07
2019-01-11T06:34:22.703Z,123.57
2019-01-11T06:36:50.111Z,112.03
2019-01-11T06:39:17.484Z,109.73
2019-01-11T06:41:46.557Z,103.70
2019-01-11T06:44:14.002Z,105.30
2019-01-11T06:46:41.396Z,103.60
2019-01-11T06:49:08.785Z,109.30
2019-01-11T06:51:36.401Z,97.47
2019-01-11T06:54:03.846Z,97.80
2019-01-11T06:56:31.282Z,97.70
2019-01-11T06:58:58.676Z,95.20
2019-01-11T07:01:26.097Z,88.83
2019-01-11T07:03:53.414Z,94.47
2019-01-11T07:06:20.803Z,105.70
2019-01-11T07:08:48.157Z,108.33
2019-01-11T07:11:15.537Z,102.93
2019-01-11T07:13:43.016Z,110.50
2019-01-11T07:16:10.518Z,110.30
2019-01-11T07:18:38.163Z,128.80
2019-01-11T07:21:05.668Z,138.07
2019-01-11T07:23:33.334Z,139.07
2019-01-11T07:26:00.655Z,105.07
2019-01-11T07:28:28.041Z,95.63
2019-01-11T07:30:57.105Z,98.90
2019-01-11T07:33:24.449Z,92.27
2019-01-11T07:35:52.934Z,93.70
2019-01-11T07:38:20.338Z,107.97
2019-01-11T07:40:48.718Z,103.10
2019-01-11T07:43:16.169Z,110.47
2019-01-11T07:45:43.618Z,104.67
2019-01-11T07:48:11.014Z,95.47
2019-01-11T07:50:38.438Z,87.93
2019-01-11T07:53:05.836Z,101.07
2019-01-11T07:55:33.253Z,98.70
2019-01-11T07:58:00.671Z,95.60
2019-01-11T08:00:28.147Z,108.47
2019-01-11T08:02:55.521Z,109.03
2019-01-11T08:05:23.691Z,103.40
2019-01-11T08:07:51.048Z,113.00
2019-01-11T08:10:18.455Z,118.43
2019-01-11T08:12:45.854Z,110.37
2019-01-11T08:15:16.801Z,106.70
2019-01-11T08:17:44.259Z,107.60
2019-01-11T08:20:11.720Z,88.63
2019-01-11T08:22:45.247Z,100.33
2019-01-11T08:25:13.239Z,110.10
2019-01-11T08:27:40.630Z,101.43
2019-01-11T08:30:09.622Z,106.00
2019-01-11T08:32:36.987Z,101.10
2019-01-11T08:35:07.195Z,98.70
2019-01-11T08:37:35.094Z,92.97
2019-01-11T08:40:02.519Z,94.23
2019-01-11T08:42:30.095Z,101.40
2019-01-11T08:44:59.179Z,100.10
2019-01-11T08:47:27.555Z,87.27
2019-01-11T08:49:55.123Z,88.23
2019-01-11T08:52:22.569Z,86.87
2019-01-11T08:54:49.925Z,84.77
2019-01-11T08:57:17.359Z,94.70
2019-01-11T08:59:44.755Z,87.00
2019-01-11T09:02:12.208Z,79.00
2019-01-11T09:04:39.705Z,81.67
2019-01-11T09:07:07.032Z,81.83
2019-01-11T09:09:36.251Z,93.73
2019-01-11T09:12:03.802Z,94.17
2019-01-11T09:14:32.751Z,87.97
2019-01-11T09:17:00.181Z,94.20
2019-01-11T09:19:27.638Z,100.17
2019-01-11T09:21:55.134Z,90.73
2019-01-11T09:24:22.562Z,94.50
2019-01-11T09:26:51.515Z,96.90
2019-01-11T09:29:20.180Z,94.10
2019-01-11T09:31:47.611Z,94.17
2019-01-11T09:34:15.012Z,100.40
2019-01-11T09:36:43.827Z,97.87
2019-01-11T09:39:11.324Z,90.90
2019-01-11T09:41:39.190Z,90.30
2019-01-11T09:44:08.092Z,99.60
2019-01-11T09:46:36.416Z,100.93
2019-01-11T09:49:04.014Z,102.10
2019-01-11T09:51:31.489Z,96.90
2019-01-11T09:53:59.722Z,105.00
2019-01-11T09:56:31.929Z,99.77
2019-01-11T09:59:02.101Z,104.93
2019-01-11T10:01:29.588Z,101.03
2019-01-11T10:03:59.908Z,100.37
2019-01-11T10:06:28.460Z,100.57
2019-01-11T10:08:56.144Z,94.03
2019-01-11T10:11:23.768Z,96.97
2019-01-11T10:13:52.297Z,92.60
2019-01-11T10:16:19.700Z,94.03
2019-01-11T10:18:47.217Z,93.33
2019-01-11T10:21:22.097Z,105.60
2019-01-11T10:23:48.825Z,230.00
2019-01-11T10:26:16.302Z,211.70
2019-01-11T10:28:56.080Z,208.47
2019-01-11T10:31:23.724Z,169.93
2019-01-11T10:33:51.202Z,155.23
2019-01-11T10:36:18.617Z,133.70
2019-01-11T10:38:47.603Z,102.93
2019-01-11T10:41:15.003Z,106.77
2019-01-11T10:43:42.506Z,97.13
2019-01-11T10:46:13.664Z,92.10
2019-01-11T10:48:44.342Z,95.13
2019-01-11T10:51:13.865Z,91.10
2019-01-11T10:53:49.006Z,79.17
2019-01-11T10:56:17.048Z,94.17
2019-01-11T10:58:44.838Z,82.13
2019-01-11T11:01:12.384Z,87.27
2019-01-11T11:03:45.981Z,87.07
2019-01-11T11:06:13.640Z,85.23
2019-01-11T11:08:42.448Z,99.83
2019-01-11T11:11:10.880Z,96.57
2019-01-11T11:13:38.376Z,99.40
2019-01-11T11:16:05.996Z,102.80
2019-01-11T11:18:33.488Z,99.17
2019-01-11T11:21:00.910Z,98.67
2019-01-11T11:23:28.378Z,116.00
2019-01-11T11:25:56.340Z,111.17
2019-01-11T11:28:23.734Z,98.37
2019-01-11T11:30:54.849Z,109.47
2019-01-11T11:33:22.286Z,104.73
2019-01-11T11:35:51.326Z,112.20
2019-01-11T11:38:19.189Z,118.47
2019-01-11T11:41:05.292Z,108.07
2019-01-11T11:43:42.507Z,117.27
2019-01-11T11:49:06.316Z,116.00
2019-01-11T11:51:33.643Z,119.90
2019-01-11T11:54:01.112Z,125.17
2019-01-11T11:56:28.586Z,123.30
2019-01-11T11:58:56.080Z,147.77
2019-01-11T12:01:24.560Z,135.80
2019-01-11T12:03:52.084Z,129.20
2019-01-11T12:06:19.554Z,131.87
2019-01-11T12:08:47.038Z,141.60
2019-01-11T12:11:14.570Z,150.90
2019-01-11T12:13:42.528Z,150.77
2019-01-11T12:16:11.726Z,177.97
2019-01-11T12:18:40.328Z,165.87
2019-01-11T12:21:07.902Z,173.63
2019-01-11T12:23:35.329Z,165.43
2019-01-11T12:26:02.904Z,173.20
2019-01-11T12:28:32.175Z,179.97
2019-01-11T12:30:59.883Z,176.33
2019-01-11T12:33:27.351Z,198.50
2019-01-11T12:35:54.674Z,175.27
2019-01-11T12:38:22.016Z,189.27
2019-01-11T12:40:51.199Z,172.13
2019-01-11T12:43:18.540Z,174.73
2019-01-11T12:45:46.053Z,172.97
2019-01-11T12:48:14.608Z,173.10
2019-01-11T12:50:42.049Z,173.93
2019-01-11T12:53:11.195Z,184.40
2019-01-11T12:55:38.605Z,178.53
2019-01-11T12:58:06.063Z,184.53
2019-01-11T13:00:33.489Z,196.03
2019-01-11T13:03:01.551Z,199.43
2019-01-11T13:05:28.985Z,198.83
2019-01-11T13:07:56.459Z,195.00
2019-01-11T13:10:24.516Z,203.17
2019-01-11T13:12:54.070Z,193.40
2019-01-11T13:15:21.530Z,189.75
2019-01-11T13:17:49.131Z,170.17
2019-01-11T13:20:17.415Z,151.93
2019-01-11T13:22:44.890Z,151.63
2019-01-11T13:25:13.718Z,143.10
2019-01-11T13:27:41.057Z,143.53
2019-01-11T13:30:09.891Z,134.97
2019-01-11T13:32:37.403Z,143.13
2019-01-11T13:35:06.357Z,135.37
2019-01-11T13:37:33.877Z,144.17
2019-01-11T13:40:06.825Z,145.10
2019-01-11T13:42:34.175Z,148.43
2019-01-11T13:45:01.735Z,153.43
2019-01-11T13:47:29.279Z,152.67
2019-01-11T13:49:56.835Z,158.33
2019-01-11T13:52:25.913Z,163.30
2019-01-11T13:54:57.175Z,166.97
2019-01-11T13:57:24.664Z,177.43
2019-01-11T13:59:52.393Z,163.83
2019-01-11T14:02:19.977Z,169.43
2019-01-11T14:04:48.412Z,179.90
2019-01-11T14:07:15.824Z,176.93
2019-01-11T14:09:43.754Z,173.77
2019-01-11T14:12:11.225Z,171.13
2019-01-11T14:14:38.738Z,173.47
2019-01-11T14:17:09.584Z,188.93
2019-01-11T14:19:36.995Z,179.93
2019-01-11T14:22:13.400Z,189.13
2019-01-11T14:24:35.386Z,169.73
2019-01-11T14:27:04.719Z,165.77
2019-01-11T14:29:32.154Z,168.03
2019-01-11T14:31:59.620Z,167.27
2019-01-11T14:34:28.374Z,159.73
2019-01-11T14:36:55.897Z,144.53
2019-01-11T14:39:24.993Z,152.53
2019-01-11T14:41:52.630Z,152.87
2019-01-11T14:44:20.328Z,134.73
2019-01-11T14:46:48.633Z,141.70
2019-01-11T14:49:17.673Z,156.53
2019-01-11T14:51:45.150Z,181.60
2019-01-11T14:54:12.596Z,185.90
2019-01-11T14:56:39.934Z,172.03
2019-01-11T14:59:09.641Z,183.40
2019-01-11T15:01:37.332Z,191.33
2019-01-11T15:04:04.832Z,185.07
2019-01-11T15:06:32.382Z,187.43
2019-01-11T15:09:01.386Z,179.17
2019-01-11T15:11:30.246Z,185.80
2019-01-11T15:13:59.608Z,200.67
2019-01-11T15:16:26.936Z,223.67
2019-01-11T15:18:54.379Z,203.93
2019-01-11T15:21:21.904Z,193.37
2019-01-11T15:23:49.458Z,203.90
2019-01-11T15:26:16.947Z,197.97
2019-01-11T15:28:44.495Z,213.30
2019-01-11T15:31:11.965Z,228.57
2019-01-11T15:33:39.405Z,249.47
2019-01-11T15:36:06.762Z,264.13
2019-01-11T15:38:34.223Z,253.30
2019-01-11T15:41:01.685Z,234.60
2019-01-11T15:43:29.079Z,233.87
2019-01-11T15:46:01.490Z,227.37
2019-01-11T15:48:38.904Z,210.57
2019-01-11T15:51:06.446Z,218.03
2019-01-11T15:53:33.914Z,204.67
2019-01-11T15:56:02.686Z,228.07
2019-01-11T15:58:33.268Z,229.80
2019-01-11T16:01:00.686Z,219.67
2019-01-11T16:03:30.174Z,217.97
2019-01-11T16:06:17.138Z,213.93
2019-01-11T16:08:46.149Z,211.63
2019-01-11T16:11:15.138Z,239.37
2019-01-11T16:13:44.272Z,227.63
2019-01-11T16:16:13.262Z,237.83
2019-01-11T16:18:40.735Z,248.17
2019-01-11T16:21:08.172Z,224.23
2019-01-11T16:23:35.682Z,226.17
2019-01-11T16:26:03.092Z,219.60
2019-01-11T16:28:30.674Z,205.43
2019-01-11T16:31:00.890Z,207.10
2019-01-11T16:33:28.358Z,183.90
2019-01-11T16:35:56.010Z,179.33
2019-01-11T16:38:23.603Z,168.63
2019-01-11T16:40:51.128Z,148.00
2019-01-11T16:43:20.216Z,112.33
2019-01-11T16:45:47.688Z,112.70
2019-01-11T16:48:15.326Z,115.80
2019-01-11T16:50:43.817Z,84.17
2019-01-11T16:53:11.275Z,80.93
2019-01-11T16:55:39.962Z,72.63
2019-01-11T16:58:08.645Z,73.87
2019-01-11T17:00:36.162Z,72.07
2019-01-11T17:03:03.592Z,63.50
2019-01-11T17:05:31.161Z,60.00
2019-01-11T17:07:58.669Z,52.73
2019-01-11T17:10:26.133Z,45.70
2019-01-11T17:12:55.077Z,45.73
2019-01-11T17:15:22.680Z,41.27
2019-01-11T17:17:50.193Z,47.80
2019-01-11T17:20:17.748Z,50.87
2019-01-11T17:22:45.157Z,48.10
2019-01-11T17:25:12.559Z,51.97
2019-01-11T17:27:44.985Z,53.47
2019-01-11T17:30:13.777Z,48.60
2019-01-11T17:32:41.323Z,54.23
2019-01-11T17:35:08.961Z,43.00
2019-01-11T17:37:36.354Z,36.47
2019-01-11T17:40:05.116Z,42.97
2019-01-11T17:42:32.645Z,44.30
2019-01-11T17:45:01.782Z,42.10
2019-01-11T17:47:31.630Z,50.87
2019-01-11T17:50:01.212Z,48.73
2019-01-11T17:52:29.686Z,54.70
2019-01-11T17:54:57.888Z,56.13
2019-01-11T17:57:26.905Z,50.37
2019-01-11T17:59:54.425Z,56.30
2019-01-11T18:02:21.968Z,48.80
2019-01-11T18:04:49.377Z,43.17
2019-01-11T18:07:19.007Z,47.83
2019-01-11T18:09:46.580Z,47.97
2019-01-11T18:12:19.842Z,43.57
2019-01-11T18:14:43.039Z,43.47
2019-01-11T18:17:10.499Z,47.10
2019-01-11T18:19:37.888Z,42.77
2019-01-11T18:22:05.292Z,42.47
2019-01-11T18:24:32.777Z,44.43
2019-01-11T18:27:00.139Z,41.80
2019-01-11T18:29:27.572Z,46.20
2019-01-11T18:31:54.991Z,44.07
2019-01-11T18:34:22.474Z,41.93
2019-01-11T18:36:49.808Z,45.87
2019-01-11T18:39:17.247Z,41.93
2019-01-11T18:41:44.674Z,45.00
2019-01-11T18:44:12.072Z,41.47
2019-01-11T18:46:39.522Z,44.67
2019-01-11T18:49:08.251Z,43.50
2019-01-11T18:51:35.695Z,40.60
2019-01-11T18:54:03.093Z,38.67
2019-01-11T18:56:30.615Z,43.90
2019-01-11T18:58:59.505Z,39.73
2019-01-11T19:01:26.901Z,42.47
2019-01-11T19:03:54.315Z,40.83
2019-01-11T19:06:21.768Z,38.70
2019-01-11T19:08:50.304Z,39.83
2019-01-11T19:11:17.822Z,35.23
2019-01-11T19:13:45.305Z,33.33
2019-01-11T19:16:12.616Z,36.63
2019-01-11T19:18:40.209Z,37.03
2019-01-11T19:21:10.174Z,32.50
2019-01-11T19:23:37.661Z,36.87
2019-01-11T19:26:05.273Z,36.80
2019-01-11T19:28:32.631Z,34.53
2019-01-11T19:31:00.030Z,35.07
2019-01-11T19:33:27.681Z,42.20
2019-01-11T19:35:55.213Z,35.73
2019-01-11T19:38:22.686Z,41.53
2019-01-11T19:40:51.693Z,41.33
2019-01-11T19:43:19.107Z,44.43
2019-01-11T19:45:46.610Z,36.33
2019-01-11T19:48:14.680Z,39.77
2019-01-11T19:50:44.239Z,39.30
2019-01-11T19:53:11.672Z,37.20
2019-01-11T19:55:39.195Z,41.83
2019-01-11T19:58:07.877Z,46.00
2019-01-11T20:00:35.296Z,46.80
2019-01-11T20:03:06.131Z,37.23
2019-01-11T20:05:33.602Z,44.33
2019-01-11T20:08:01.026Z,46.60
2019-01-11T20:10:30.024Z,50.53
2019-01-11T20:12:57.473Z,46.13
2019-01-11T20:15:24.875Z,49.97
2019-01-11T20:17:52.536Z,51.03
2019-01-11T20:20:19.990Z,45.23
2019-01-11T20:22:49.089Z,42.93
2019-01-11T20:25:17.818Z,56.30
2019-01-11T20:27:47.054Z,53.20
2019-01-11T20:30:15.898Z,51.87
2019-01-11T20:32:45.012Z,51.30
2019-01-11T20:35:12.487Z,45.93
2019-01-11T20:37:41.676Z,46.13
2019-01-11T20:40:10.436Z,48.17
2019-01-11T20:42:37.834Z,52.37
2019-01-11T20:45:06.369Z,44.17
2019-01-11T20:47:34.073Z,47.17
2019-01-11T20:50:01.622Z,48.13
2019-01-11T20:52:29.109Z,47.63
2019-01-11T20:54:56.574Z,44.30
2019-01-11T20:57:24.061Z,43.67
2019-01-11T20:59:51.451Z,46.37
2019-01-11T21:02:18.913Z,46.97
2019-01-11T21:04:46.534Z,45.73
2019-01-11T21:07:16.528Z,40.10
2019-01-11T21:09:44.062Z,48.47
2019-01-11T21:12:11.472Z,46.70
2019-01-11T21:14:38.955Z,44.93
2019-01-11T21:17:06.495Z,45.00
2019-01-11T21:19:34.265Z,47.50
2019-01-11T21:22:01.746Z,44.47
2019-01-11T21:24:29.364Z,45.57
2019-01-11T21:26:56.812Z,45.30
2019-01-11T21:29:26.360Z,44.97
2019-01-11T21:31:53.850Z,50.23
2019-01-11T21:34:21.270Z,50.17
2019-01-11T21:36:48.793Z,43.67
2019-01-11T21:39:16.289Z,45.30
2019-01-11T21:41:45.331Z,44.50
2019-01-11T21:44:12.766Z,43.20
2019-01-11T21:46:40.812Z,45.47
2019-01-11T21:49:08.271Z,45.10
2019-01-11T21:51:35.656Z,47.17
2019-01-11T21:54:04.834Z,48.40
2019-01-11T21:56:32.265Z,46.83
2019-01-11T21:58:59.658Z,44.00
2019-01-11T22:01:28.163Z,41.17
2019-01-11T22:03:55.683Z,39.27
2019-01-11T22:06:23.150Z,39.40
2019-01-11T22:08:50.676Z,40.07
2019-01-11T22:11:18.170Z,44.17
2019-01-11T22:13:45.689Z,40.87
2019-01-11T22:16:13.184Z,42.17
2019-01-11T22:18:40.817Z,41.97
2019-01-11T22:21:08.299Z,40.57
2019-01-11T22:23:35.888Z,41.73
2019-01-11T22:26:03.451Z,43.90
2019-01-11T22:28:30.986Z,42.60
2019-01-11T22:30:58.535Z,37.53
2019-01-11T22:33:25.988Z,38.50
2019-01-11T22:35:53.461Z,44.63
2019-01-11T22:38:21.012Z,39.40
2019-01-11T22:40:49.583Z,33.60
2019-01-11T22:43:17.747Z,39.80
2019-01-11T22:45:46.540Z,45.77
2019-01-11T22:48:14.013Z,38.67
2019-01-11T22:50:41.872Z,33.30
2019-01-11T22:53:09.359Z,37.07
2019-01-11T22:55:36.880Z,36.20
2019-01-11T22:58:04.407Z,36.23
2019-01-11T23:00:37.160Z,34.03
2019-01-11T23:03:06.259Z,35.60
2019-01-11T23:05:34.221Z,37.77
2019-01-11T23:08:01.713Z,34.30
2019-01-11T23:10:59.268Z,35.67
2019-01-11T23:13:26.759Z,34.77
2019-01-11T23:15:54.413Z,41.50
2019-01-11T23:18:21.822Z,40.93
2019-01-11T23:20:49.809Z,39.83
2019-01-11T23:23:17.207Z,32.83
2019-01-11T23:25:45.209Z,31.63
2019-01-11T23:28:12.665Z,30.50
2019-01-11T23:30:40.129Z,34.70
2019-01-11T23:33:07.601Z,36.43
2019-01-11T23:35:35.066Z,30.63
2019-01-11T23:38:02.405Z,32.23
2019-01-11T23:40:29.795Z,28.73
2019-01-11T23:42:57.314Z,32.60
2019-01-11T23:45:24.784Z,34.23
2019-01-11T23:47:52.157Z,30.10
2019-01-11T23:50:19.629Z,31.33
2019-01-11T23:52:47.443Z,28.07
2019-01-11T23:55:14.977Z,30.70
2019-01-11T23:57:42.466Z,35.93
